createdAt,value
2019-02-02T00:03:48.056Z,14.50
2019-02-02T00:10:17.134Z,16.80
2019-02-02T00:13:18.814Z,18.37
2019-02-02T00:16:19.852Z,16.83
2019-02-02T00:19:20.870Z,16.50
2019-02-02T00:22:22.395Z,17.17
2019-02-02T00:25:23.353Z,15.03
2019-02-02T00:28:24.255Z,15.80
2019-02-02T00:31:25.975Z,14.80
2019-02-02T00:34:27.625Z,17.97
2019-02-02T00:40:36.575Z,18.80
2019-02-02T00:43:38.721Z,16.17
2019-02-02T00:46:40.026Z,15.90
2019-02-02T00:49:41.718Z,16.57
2019-02-02T00:52:43.307Z,15.57
2019-02-02T00:55:44.753Z,17.63
2019-02-02T00:58:45.878Z,17.27
2019-02-02T01:01:47.360Z,15.60
2019-02-02T01:04:47.541Z,13.93
2019-02-02T01:11:19.375Z,17.17
2019-02-02T01:14:21.059Z,17.97
2019-02-02T01:17:10.729Z,15.57
2019-02-02T01:26:47.556Z,17.13
2019-02-02T01:29:48.633Z,14.97
2019-02-02T01:32:50.123Z,18.40
2019-02-02T01:35:51.612Z,15.53
2019-02-02T01:41:59.924Z,17.30
2019-02-02T01:45:01.747Z,18.10
2019-02-02T01:48:03.510Z,13.20
2019-02-02T01:51:04.860Z,13.90
2019-02-02T01:54:06.266Z,15.47
2019-02-02T01:57:07.187Z,16.40
2019-02-02T02:00:08.328Z,15.20
2019-02-02T02:03:09.699Z,15.73
2019-02-02T02:06:11.255Z,15.90
2019-02-02T02:12:19.539Z,16.67
2019-02-02T02:15:21.164Z,16.37
2019-02-02T02:18:22.344Z,17.23
2019-02-02T02:21:24.234Z,16.70
2019-02-02T02:24:26.148Z,15.90
2019-02-02T02:27:27.390Z,15.20
2019-02-02T02:30:29.086Z,16.77
2019-02-02T02:33:30.403Z,15.23
2019-02-02T02:36:30.561Z,16.33
2019-02-02T02:39:20.590Z,15.70
2019-02-02T02:42:10.333Z,16.20
2019-02-02T02:45:11.291Z,18.00
2019-02-02T02:48:12.491Z,15.33
2019-02-02T02:54:45.859Z,14.50
2019-02-02T02:57:54.596Z,16.67
2019-02-02T03:00:55.586Z,15.90
2019-02-02T03:03:55.448Z,13.17
2019-02-02T03:13:45.111Z,13.47
2019-02-02T03:16:46.990Z,16.70
2019-02-02T03:19:48.620Z,14.97
2019-02-02T03:22:50.006Z,16.10
2019-02-02T03:25:51.034Z,15.80
2019-02-02T03:28:53.753Z,16.37
2019-02-02T03:31:55.473Z,17.77
2019-02-02T03:34:56.718Z,17.07
2019-02-02T03:37:58.106Z,15.80
2019-02-02T03:44:06.856Z,15.63
2019-02-02T03:47:08.303Z,14.30
2019-02-02T03:50:10.064Z,15.17
2019-02-02T03:53:11.444Z,16.20
2019-02-02T03:56:12.495Z,18.53
2019-02-02T03:59:13.663Z,17.23
2019-02-02T04:02:14.766Z,17.53
2019-02-02T04:05:16.080Z,16.10
2019-02-02T04:08:17.191Z,16.03
2019-02-02T04:14:10.083Z,17.63
2019-02-02T04:17:11.435Z,15.73
2019-02-02T04:20:12.894Z,15.70
2019-02-02T04:23:13.730Z,17.10
2019-02-02T04:26:15.159Z,15.30
2019-02-02T04:29:17.731Z,17.70
2019-02-02T04:32:19.307Z,17.50
2019-02-02T04:35:21.151Z,17.60
2019-02-02T04:38:11.074Z,16.03
2019-02-02T04:41:18.254Z,15.43
2019-02-02T04:44:19.375Z,17.03
2019-02-02T04:47:20.984Z,16.53
2019-02-02T04:50:22.619Z,16.33
2019-02-02T04:53:23.956Z,16.70
2019-02-02T04:56:25.699Z,17.50
2019-02-02T04:59:29.264Z,16.00
2019-02-02T05:02:30.534Z,16.63
2019-02-02T05:05:31.755Z,15.23
2019-02-02T05:08:32.917Z,15.90
2019-02-02T05:17:55.098Z,16.33
2019-02-02T05:20:56.216Z,15.53
2019-02-02T05:23:57.727Z,17.37
2019-02-02T05:26:59.291Z,17.50
2019-02-02T05:30:00.867Z,16.37
2019-02-02T05:33:02.389Z,18.30
2019-02-02T05:36:03.287Z,17.50
2019-02-02T05:39:05.090Z,17.60
2019-02-02T05:45:20.515Z,16.10
2019-02-02T05:48:20.784Z,16.37
2019-02-02T05:54:24.682Z,17.07
2019-02-02T05:57:26.503Z,16.40
2019-02-02T06:00:46.990Z,16.60
2019-02-02T06:03:48.332Z,15.77
2019-02-02T06:06:49.634Z,15.40
2019-02-02T06:09:50.922Z,16.43
2019-02-02T06:16:06.197Z,17.60
2019-02-02T06:19:06.110Z,15.63
2019-02-02T06:22:14.655Z,15.90
2019-02-02T06:28:30.592Z,16.93
2019-02-02T06:31:36.809Z,17.33
2019-02-02T06:34:38.464Z,17.53
2019-02-02T06:37:39.564Z,15.50
2019-02-02T06:40:41.342Z,15.47
2019-02-02T06:43:31.373Z,16.10
2019-02-02T06:46:21.139Z,14.47
2019-02-02T06:49:22.568Z,18.87
2019-02-02T06:52:24.530Z,16.43
2019-02-02T06:55:26.260Z,17.90
2019-02-02T06:58:27.898Z,18.37
2019-02-02T07:01:29.027Z,15.67
2019-02-02T07:04:30.878Z,17.23
2019-02-02T07:07:32.969Z,17.10
2019-02-02T07:10:34.156Z,16.93
2019-02-02T07:13:36.250Z,16.47
2019-02-02T07:16:37.432Z,16.43
2019-02-02T07:19:38.579Z,18.07
2019-02-02T07:22:39.686Z,17.47
2019-02-02T07:25:41.315Z,16.90
2019-02-02T07:28:42.357Z,15.30
2019-02-02T07:31:44.368Z,16.03
2019-02-02T07:34:46.103Z,16.57
2019-02-02T07:37:47.771Z,16.37
2019-02-02T07:40:49.431Z,15.13
2019-02-02T07:43:51.302Z,15.23
2019-02-02T07:46:53.519Z,14.70
2019-02-02T07:50:01.815Z,16.17
2019-02-02T07:53:03.809Z,15.57
2019-02-02T07:56:04.898Z,17.17
2019-02-02T07:59:06.247Z,16.73
2019-02-02T08:02:08.226Z,20.03
2019-02-02T08:05:09.809Z,17.43
2019-02-02T08:08:11.688Z,17.03
2019-02-02T08:11:13.462Z,18.87
2019-02-02T08:17:21.376Z,18.60
2019-02-02T08:20:11.779Z,16.93
2019-02-02T08:23:20.745Z,18.87
2019-02-02T08:26:22.130Z,17.20
2019-02-02T08:29:22.791Z,16.63
2019-02-02T08:35:57.300Z,14.77
2019-02-02T08:39:00.246Z,16.17
2019-02-02T08:42:01.410Z,16.53
2019-02-02T08:48:16.985Z,16.37
2019-02-02T08:57:35.591Z,16.60
2019-02-02T09:00:43.299Z,17.07
2019-02-02T09:03:44.904Z,18.73
2019-02-02T09:06:46.677Z,16.83
2019-02-02T09:09:36.651Z,19.67
2019-02-02T09:12:45.543Z,20.23
2019-02-02T09:18:53.855Z,18.70
2019-02-02T09:21:56.411Z,17.70
2019-02-02T09:24:57.866Z,18.27
2019-02-02T09:27:59.035Z,17.60
2019-02-02T09:31:00.234Z,17.50
2019-02-02T09:34:01.344Z,16.50
2019-02-02T09:37:03.352Z,17.40
2019-02-02T09:40:04.395Z,15.50
2019-02-02T09:43:05.722Z,15.73
2019-02-02T09:49:14.231Z,17.90
2019-02-02T09:52:15.270Z,18.83
2019-02-02T09:55:16.469Z,16.90
2019-02-02T09:58:18.025Z,18.63
2019-02-02T10:01:27.367Z,19.83
2019-02-02T10:04:21.901Z,18.97
2019-02-02T10:07:23.779Z,18.33
2019-02-02T10:10:25.545Z,19.47
2019-02-02T10:13:27.563Z,19.23
2019-02-02T10:19:36.282Z,17.77
2019-02-02T10:22:38.019Z,19.03
2019-02-02T10:25:39.902Z,22.10
2019-02-02T10:28:41.511Z,20.67
2019-02-02T10:31:42.690Z,19.57
2019-02-02T10:34:45.046Z,19.80
2019-02-02T10:37:46.538Z,17.70
2019-02-02T10:40:47.781Z,18.10
2019-02-02T10:43:48.875Z,19.00
2019-02-02T10:50:01.840Z,20.70
2019-02-02T10:53:03.354Z,19.83
2019-02-02T10:56:05.006Z,23.00
2019-02-02T10:59:06.815Z,26.60
2019-02-02T11:02:10.754Z,22.47
2019-02-02T11:05:12.352Z,25.13
2019-02-02T11:08:15.535Z,20.53
2019-02-02T11:11:17.038Z,20.90
2019-02-02T11:14:18.340Z,19.80
2019-02-02T11:17:19.302Z,18.77
2019-02-02T11:20:20.882Z,20.17
2019-02-02T11:23:22.195Z,21.57
2019-02-02T11:26:23.376Z,19.73
2019-02-02T11:29:25.225Z,23.90
2019-02-02T11:32:25.921Z,28.33
2019-02-02T11:39:00.801Z,22.57
2019-02-02T11:42:01.839Z,22.77
2019-02-02T11:45:04.534Z,26.10
2019-02-02T11:48:05.969Z,24.13
2019-02-02T11:51:08.503Z,22.37
2019-02-02T11:54:10.055Z,20.37
2019-02-02T11:57:11.571Z,20.80
2019-02-02T12:00:16.296Z,18.73
2019-02-02T12:03:17.299Z,21.30
2019-02-02T12:06:19.859Z,22.60
2019-02-02T12:09:21.721Z,19.10
2019-02-02T12:12:24.286Z,19.17
2019-02-02T12:15:26.123Z,18.40
2019-02-02T12:21:34.375Z,20.57
2019-02-02T12:24:36.286Z,21.80
2019-02-02T12:27:37.913Z,20.47
2019-02-02T12:30:38.995Z,20.80
2019-02-02T12:33:40.729Z,21.90
2019-02-02T12:36:42.500Z,21.90
2019-02-02T12:39:43.203Z,22.47
2019-02-02T12:42:52.134Z,20.53
2019-02-02T12:46:01.386Z,20.93
2019-02-02T12:49:08.666Z,22.87
2019-02-02T12:52:10.500Z,23.00
2019-02-02T12:55:12.103Z,21.00
2019-02-02T12:58:13.957Z,21.70
2019-02-02T13:01:16.051Z,21.27
2019-02-02T13:04:17.698Z,18.90
2019-02-02T13:07:20.128Z,20.33
2019-02-02T13:10:24.479Z,20.10
2019-02-02T13:13:25.490Z,16.43
2019-02-02T13:16:28.632Z,18.17
2019-02-02T13:22:46.918Z,16.70
2019-02-02T13:25:48.143Z,17.30
2019-02-02T13:28:50.210Z,18.43
2019-02-02T13:31:52.938Z,19.93
2019-02-02T13:34:56.574Z,19.50
2019-02-02T13:37:57.598Z,16.87
2019-02-02T13:40:59.632Z,16.80
2019-02-02T13:44:00.900Z,17.60
2019-02-02T13:47:03.097Z,18.70
2019-02-02T13:50:04.103Z,17.13
2019-02-02T13:53:06.041Z,15.47
2019-02-02T13:56:07.676Z,17.60
2019-02-02T13:59:09.674Z,17.97
2019-02-02T14:02:12.434Z,16.70
2019-02-02T14:05:15.159Z,16.33
2019-02-02T14:08:15.855Z,14.60
2019-02-02T14:14:55.035Z,14.70
2019-02-02T14:17:56.681Z,15.70
2019-02-02T14:24:05.810Z,15.20
2019-02-02T14:27:08.394Z,16.10
2019-02-02T14:29:57.790Z,16.17
2019-02-02T14:36:20.284Z,14.43
2019-02-02T14:39:21.848Z,15.20
2019-02-02T14:42:23.055Z,13.77
2019-02-02T14:45:27.232Z,13.90
2019-02-02T14:48:27.814Z,14.97
2019-02-02T14:51:34.927Z,15.10
2019-02-02T14:54:38.022Z,17.30
2019-02-02T14:57:39.402Z,14.93
2019-02-02T15:03:42.843Z,15.30
2019-02-02T15:06:44.567Z,15.23
2019-02-02T15:09:46.336Z,16.07
2019-02-02T15:12:48.372Z,18.63
2019-02-02T15:15:50.713Z,14.93
2019-02-02T15:18:52.099Z,13.40
2019-02-02T15:21:59.884Z,13.47
2019-02-02T15:25:02.611Z,14.83
2019-02-02T15:28:03.638Z,16.17
2019-02-02T15:31:05.434Z,14.97
2019-02-02T15:34:08.069Z,14.27
2019-02-02T15:37:10.709Z,14.00
2019-02-02T15:40:11.631Z,16.00
2019-02-02T15:43:13.820Z,14.10
2019-02-02T15:46:15.644Z,16.13
2019-02-02T15:49:17.783Z,15.13
2019-02-02T15:52:25.304Z,15.40
2019-02-02T15:55:29.102Z,15.70
2019-02-02T15:58:31.155Z,14.83
2019-02-02T16:01:32.298Z,15.07
2019-02-02T16:07:41.460Z,15.07
2019-02-02T16:10:42.667Z,16.60
2019-02-02T16:13:44.123Z,16.13
2019-02-02T16:16:45.813Z,16.97
2019-02-02T16:19:47.977Z,16.97
2019-02-02T16:22:55.851Z,16.50
2019-02-02T16:25:58.923Z,16.73
2019-02-02T16:28:59.985Z,18.70
2019-02-02T16:32:01.342Z,19.80
2019-02-02T16:35:03.379Z,17.60
2019-02-02T16:38:04.273Z,18.07
2019-02-02T16:41:05.498Z,19.00
2019-02-02T16:44:06.484Z,18.23
2019-02-02T16:47:09.253Z,17.80
2019-02-02T16:50:11.430Z,18.60
2019-02-02T16:56:26.590Z,17.50
2019-02-02T16:59:27.726Z,19.10
2019-02-02T17:02:29.484Z,19.57
2019-02-02T17:05:31.792Z,17.77
2019-02-02T17:08:32.975Z,20.20
2019-02-02T17:11:39.363Z,19.57
2019-02-02T17:14:40.791Z,20.30
2019-02-02T17:17:43.326Z,18.97
2019-02-02T17:20:45.060Z,20.00
2019-02-02T17:26:53.746Z,18.70
2019-02-02T17:29:54.669Z,20.07
2019-02-02T17:32:57.851Z,20.10
2019-02-02T17:35:59.491Z,18.43
2019-02-02T17:39:01.591Z,19.40
2019-02-02T17:42:03.966Z,18.73
2019-02-02T17:45:06.027Z,19.83
2019-02-02T17:48:07.739Z,18.00
2019-02-02T17:51:08.406Z,18.13
2019-02-02T17:57:43.858Z,17.33
2019-02-02T18:04:07.171Z,18.80
2019-02-02T18:07:09.460Z,17.30
2019-02-02T18:10:11.581Z,21.20
2019-02-02T18:13:14.594Z,17.53
2019-02-02T18:16:17.083Z,19.17
2019-02-02T18:19:19.023Z,19.43
2019-02-02T18:22:20.816Z,19.30
2019-02-02T18:28:36.254Z,20.13
2019-02-02T18:31:41.865Z,18.63
2019-02-02T18:34:51.298Z,19.47
2019-02-02T18:37:47.992Z,16.60
2019-02-02T18:40:51.609Z,19.57
2019-02-02T18:44:03.912Z,17.90
2019-02-02T18:47:05.749Z,17.17
2019-02-02T18:50:07.670Z,17.87
2019-02-02T18:53:09.352Z,17.70
2019-02-02T19:05:42.069Z,16.60
2019-02-02T19:08:43.710Z,16.57
2019-02-02T19:11:45.479Z,16.87
2019-02-02T19:14:46.845Z,18.00
2019-02-02T19:17:48.506Z,17.03
2019-02-02T19:20:50.180Z,16.67
2019-02-02T19:30:36.013Z,16.80
2019-02-02T19:33:36.926Z,17.93
2019-02-02T19:36:38.465Z,18.30
2019-02-02T19:39:39.398Z,17.60
2019-02-02T19:42:39.966Z,18.70
2019-02-02T19:48:43.972Z,17.43
2019-02-02T19:55:14.299Z,18.30
2019-02-02T20:04:25.068Z,18.90
2019-02-02T20:07:15.342Z,21.20
2019-02-02T20:10:23.987Z,19.40
2019-02-02T20:16:27.808Z,19.10
2019-02-02T20:22:51.143Z,19.10
2019-02-02T20:32:14.554Z,16.80
2019-02-02T20:35:15.851Z,19.33
2019-02-02T20:38:17.616Z,16.10
2019-02-02T20:41:19.171Z,17.07
2019-02-02T20:44:21.339Z,17.93
2019-02-02T20:50:30.290Z,16.63
2019-02-02T20:53:32.271Z,18.27
2019-02-02T20:56:33.599Z,18.97
2019-02-02T20:59:34.902Z,18.50
2019-02-02T21:02:36.489Z,18.50
2019-02-02T21:05:38.503Z,18.73
2019-02-02T21:08:41.529Z,22.90
2019-02-02T21:11:56.619Z,21.23
2019-02-02T21:14:56.034Z,19.87
2019-02-02T21:17:57.383Z,19.33
2019-02-02T21:20:57.660Z,21.07
2019-02-02T21:24:00.391Z,20.37
2019-02-02T21:27:02.182Z,21.73
2019-02-02T21:30:10.051Z,19.13
2019-02-02T21:33:14.800Z,20.80
2019-02-02T21:36:16.556Z,18.10
2019-02-02T21:39:18.164Z,20.07
2019-02-02T21:42:19.398Z,17.40
2019-02-02T21:45:20.998Z,17.70
2019-02-02T21:54:39.255Z,19.00
2019-02-02T21:57:40.263Z,16.60
2019-02-02T22:00:48.077Z,19.17
2019-02-02T22:03:49.443Z,17.97
2019-02-02T22:06:51.339Z,16.13
2019-02-02T22:09:53.796Z,19.37
2019-02-02T22:12:54.154Z,18.47
2019-02-02T22:19:28.737Z,17.93
2019-02-02T22:22:28.984Z,17.50
2019-02-02T22:28:51.898Z,19.70
2019-02-02T22:34:59.510Z,17.77
2019-02-02T22:38:01.141Z,22.13
2019-02-02T22:41:02.403Z,21.37
2019-02-02T22:44:06.815Z,18.70
2019-02-02T22:47:08.307Z,21.47
2019-02-02T22:50:10.507Z,20.60
2019-02-02T22:53:10.528Z,21.30
2019-02-02T22:56:11.584Z,21.00
2019-02-02T22:59:13.462Z,21.57
2019-02-02T23:02:21.335Z,19.70
2019-02-02T23:05:22.667Z,20.57
2019-02-02T23:08:24.350Z,19.60
2019-02-02T23:11:26.135Z,19.87
2019-02-02T23:14:27.277Z,21.30
2019-02-02T23:17:27.656Z,22.87
2019-02-02T23:20:36.559Z,21.00
2019-02-02T23:23:45.095Z,20.53
2019-02-02T23:26:53.763Z,20.60
2019-02-02T23:29:54.601Z,20.73
2019-02-02T23:36:03.167Z,22.17
2019-02-02T23:39:04.275Z,19.40
2019-02-02T23:42:05.151Z,18.70
2019-02-02T23:45:06.363Z,19.17
2019-02-02T23:48:08.463Z,22.03
2019-02-02T23:51:10.397Z,19.30
2019-02-02T23:54:11.550Z,19.10
2019-02-02T23:57:13.117Z,20.40
